Time;durP1;ratioP1;P1;durP2;ratioP2;P2;SDS_P1;SDS_P2;PMS_P1;PMS_P2;Temp;Humidity;BMP_temperature;BMP_pressure;BME280_temperature;BME280_humidity;BME280_pressure;Samples;Min_cycle;Max_cycle;Signal;HPM_P1;HPM_P2
2021/03/04 00:02:13;;;;;;;50.10;20.88;;;;;;;5.90;78.42;99553.03;5033556;28;20483;-71
2021/03/04 00:04:38;;;;;;;39.97;20.40;;;;;;;5.86;78.88;99560.53;5033266;28;20052;-71
2021/03/04 00:07:04;;;;;;;48.00;19.40;;;;;;;5.80;79.80;99561.16;5033886;28;20474;-71
2021/03/04 00:09:29;;;;;;;35.10;18.23;;;;;;;5.93;79.16;99550.91;5033441;28;20025;-71
2021/03/04 00:11:54;;;;;;;45.22;19.42;;;;;;;5.72;79.58;99547.69;5048734;28;20087;-71
2021/03/04 00:14:19;;;;;;;44.20;18.60;;;;;;;6.00;79.18;99545.78;5032100;28;20060;-71
2021/03/04 00:16:45;;;;;;;40.63;19.42;;;;;;;5.96;78.89;99543.56;5032760;28;20053;-71
2021/03/04 00:19:10;;;;;;;41.38;19.58;;;;;;;5.79;79.05;99554.13;5033046;28;20033;-71
2021/03/04 00:21:36;;;;;;;39.95;19.83;;;;;;;5.71;79.63;99544.16;5033605;28;20036;-71
2021/03/04 00:24:01;;;;;;;42.10;22.55;;;;;;;5.77;79.90;99545.38;5033225;28;20040;-71
2021/03/04 00:26:26;;;;;;;43.80;23.08;;;;;;;6.05;78.51;99537.22;5033135;28;20052;-71
2021/03/04 00:28:51;;;;;;;39.95;21.63;;;;;;;5.92;78.76;99537.59;5033147;28;20033;-71
2021/03/04 00:31:17;;;;;;;44.35;22.17;;;;;;;5.87;79.35;99530.03;5031917;28;20025;-71
2021/03/04 00:33:42;;;;;;;45.50;22.02;;;;;;;5.86;79.52;99533.69;5033499;28;20029;-71
2021/03/04 00:36:07;;;;;;;44.92;22.10;;;;;;;5.78;79.93;99530.94;5032331;28;20021;-71
2021/03/04 00:38:34;;;;;;;40.13;21.95;;;;;;;5.76;79.86;99526.72;5032439;28;20503;-71
2021/03/04 00:40:59;;;;;;;46.17;21.30;;;;;;;5.78;79.34;99528.25;5032295;28;20026;-71
2021/03/04 00:43:25;;;;;;;39.13;20.17;;;;;;;5.69;79.68;99526.50;5033369;28;20040;-71
2021/03/04 00:45:50;;;;;;;38.00;19.08;;;;;;;5.81;79.43;99516.38;5032715;28;20029;-72
2021/03/04 00:48:15;;;;;;;40.10;18.27;;;;;;;5.71;79.35;99506.56;5031487;28;20029;-71
2021/03/04 00:50:41;;;;;;;41.45;18.25;;;;;;;5.91;79.01;99501.84;5032139;28;20053;-72
2021/03/04 00:53:07;;;;;;;36.42;19.00;;;;;;;5.76;78.78;99497.19;5031105;28;20437;-71
2021/03/04 00:55:32;;;;;;;38.42;17.60;;;;;;;5.86;78.07;99506.84;5033793;28;20057;-71
2021/03/04 00:57:58;;;;;;;37.53;18.33;;;;;;;5.68;79.05;99497.97;5032835;28;20030;-71
2021/03/04 01:00:23;;;;;;;37.92;17.85;;;;;;;5.77;79.17;99496.22;5032052;28;20028;-71
2021/03/04 01:02:48;;;;;;;39.97;18.60;;;;;;;5.63;79.75;99500.25;5030531;28;20570;-71
2021/03/04 01:05:14;;;;;;;37.28;18.58;;;;;;;5.54;79.89;99501.22;5031416;28;20037;-71
2021/03/04 01:07:40;;;;;;;36.35;17.83;;;;;;;5.55;80.30;99492.16;5032155;28;20029;-72
2021/03/04 01:10:08;;;;;;;32.05;16.25;;;;;;;5.57;79.99;99498.22;5032071;28;20041;-71
2021/03/04 01:12:33;;;;;;;39.00;17.50;;;;;;;5.45;80.01;99498.44;5032419;28;20026;-71
2021/03/04 01:14:59;;;;;;;38.25;18.48;;;;;;;5.37;80.08;99495.69;5030164;28;20025;-71
2021/03/04 01:17:24;;;;;;;35.22;16.52;;;;;;;5.32;80.38;99492.63;5031642;28;20052;-71
2021/03/04 01:19:50;;;;;;;43.53;17.92;;;;;;;5.22;81.19;99491.84;5032169;28;20479;-71
2021/03/04 01:22:16;;;;;;;42.22;18.58;;;;;;;5.26;80.54;99487.84;5029534;28;20037;-71
2021/03/04 01:24:41;;;;;;;37.65;18.27;;;;;;;5.14;80.47;99483.72;5031152;28;20029;-71
2021/03/04 01:27:06;;;;;;;37.30;18.15;;;;;;;5.02;81.10;99481.22;5032159;28;20033;-71
2021/03/04 01:29:31;;;;;;;37.33;18.23;;;;;;;5.01;81.49;99478.72;5031206;28;20033;-71
2021/03/04 01:31:57;;;;;;;37.85;18.33;;;;;;;4.93;81.99;99460.72;5031706;28;20055;-71
2021/03/04 01:34:22;;;;;;;40.13;18.67;;;;;;;4.90;82.22;99468.19;5031790;28;20034;-71
2021/03/04 01:36:47;;;;;;;37.92;19.25;;;;;;;4.79;82.55;99470.09;5031503;28;20053;-71
2021/03/04 01:39:13;;;;;;;46.35;18.80;;;;;;;4.80;83.02;99471.78;5031576;28;20109;-71
2021/03/04 01:41:38;;;;;;;38.53;18.45;;;;;;;4.82;83.08;99463.56;5031869;28;20033;-71
2021/03/04 01:44:04;;;;;;;41.45;18.50;;;;;;;4.76;83.14;99458.81;5032351;28;20022;-71
2021/03/04 01:46:29;;;;;;;43.42;18.38;;;;;;;4.74;82.99;99466.16;5031993;28;20368;-71
2021/03/04 01:48:55;;;;;;;37.55;17.30;;;;;;;4.78;83.06;99459.53;5031965;28;20426;-71
2021/03/04 01:51:20;;;;;;;40.20;18.52;;;;;;;4.74;82.99;99448.28;5031162;28;20045;-71
2021/03/04 01:53:46;;;;;;;35.92;17.15;;;;;;;4.92;82.18;99453.63;5032011;28;20506;-71
2021/03/04 01:56:12;;;;;;;34.97;16.63;;;;;;;5.05;82.30;99458.63;5032332;28;20025;-71
2021/03/04 01:58:37;;;;;;;34.85;16.90;;;;;;;5.08;81.04;99452.97;5032056;28;20030;-70
2021/03/04 02:04:24;;;;;;;36.20;17.77;;;;;;;5.05;81.55;99446.06;5018290;28;20095;-70
2021/03/04 02:06:55;;;;;;;31.92;16.60;;;;;;;5.09;81.91;99438.56;5031887;28;20462;-70
2021/03/04 02:09:21;;;;;;;39.55;18.58;;;;;;;5.05;81.55;99438.00;5031418;28;20106;-70
2021/03/04 02:11:56;;;;;;;41.15;19.08;;;;;;;5.03;81.73;99429.31;5031432;28;20057;-70
2021/03/04 02:14:27;;;;;;;39.40;17.90;;;;;;;5.07;81.66;99426.31;5031627;28;20509;-70
2021/03/04 02:17:00;;;;;;;38.17;19.00;;;;;;;5.05;81.06;99432.66;5027368;28;20026;-70
2021/03/04 02:19:40;;;;;;;41.22;17.83;;;;;;;5.03;81.66;99429.31;5029082;28;20025;-70
2021/03/04 02:22:22;;;;;;;36.00;17.42;;;;;;;5.04;81.22;99422.94;5027198;28;20040;-70
2021/03/04 02:25:15;;;;;;;39.95;18.92;;;;;;;5.03;81.61;99423.06;5022426;28;20029;-70
2021/03/04 02:27:49;;;;;;;36.95;17.55;;;;;;;4.92;82.05;99423.31;5031072;28;20034;-70
2021/03/04 02:30:36;;;;;;;42.13;18.20;;;;;;;4.91;82.48;99413.59;5034136;28;20072;-70
2021/03/04 02:33:09;;;;;;;37.45;17.45;;;;;;;4.94;81.95;99418.63;5031550;28;20068;-70
2021/03/04 02:35:37;;;;;;;42.72;19.38;;;;;;;5.11;81.40;99400.84;5015973;28;20167;-70
2021/03/04 02:38:08;;;;;;;48.10;20.42;;;;;;;5.16;81.39;99410.16;5028811;28;20486;-71
2021/03/04 02:40:36;;;;;;;36.08;17.63;;;;;;;5.10;81.60;99416.09;5035066;28;20037;-70
2021/03/04 02:43:05;;;;;;;41.47;19.15;;;;;;;4.99;81.61;99411.81;5041110;28;20025;-70
2021/03/04 02:45:31;;;;;;;66.18;34.92;;;;;;;5.11;81.22;99411.59;5057048;28;20053;-70
2021/03/04 02:47:56;;;;;;;53.42;25.35;;;;;;;5.09;81.26;99410.91;5058738;28;20048;-70
2021/03/04 02:50:24;;;;;;;85.43;39.78;;;;;;;5.14;81.21;99403.25;5060513;28;20040;-70
2021/03/04 02:52:50;;;;;;;57.33;28.38;;;;;;;5.09;81.14;99398.34;5059981;28;20021;-70
2021/03/04 02:55:18;;;;;;;57.42;27.15;;;;;;;4.84;82.30;99408.81;5044008;28;20034;-69
2021/03/04 02:57:45;;;;;;;41.72;19.52;;;;;;;4.78;82.23;99403.22;5048352;28;20048;-70
2021/03/04 03:00:14;;;;;;;36.75;18.67;;;;;;;4.61;82.22;99405.75;5055074;28;20036;-70
2021/03/04 03:02:42;;;;;;;38.55;16.70;;;;;;;4.55;83.24;99400.13;5056226;28;20056;-70
2021/03/04 03:05:10;;;;;;;43.42;17.60;;;;;;;4.76;82.94;99389.13;5052865;22;20576;-66
2021/03/04 03:07:38;;;;;;;36.78;17.58;;;;;;;4.68;82.49;99407.81;5013786;28;20045;-66
2021/03/04 03:10:05;;;;;;;37.22;17.98;;;;;;;4.88;81.93;99395.97;5014701;28;20025;-65
2021/03/04 03:12:32;;;;;;;47.05;21.08;;;;;;;4.80;82.18;99363.72;5014915;28;20107;-66
2021/03/04 03:15:00;;;;;;;44.97;24.05;;;;;;;4.76;81.90;99365.84;5015045;28;20113;-66
2021/03/04 03:17:26;;;;;;;49.20;25.27;;;;;;;4.79;81.92;99365.56;5013340;28;20026;-66
2021/03/04 03:19:51;;;;;;;39.30;19.38;;;;;;;4.77;83.03;99385.47;5014708;28;20419;-66
2021/03/04 03:22:16;;;;;;;39.25;18.25;;;;;;;4.74;82.65;99372.34;5014618;28;20474;-66
2021/03/04 03:24:42;;;;;;;39.33;18.83;;;;;;;4.69;82.23;99385.34;5014305;28;20025;-66
2021/03/04 03:27:07;;;;;;;36.58;18.75;;;;;;;4.65;83.02;99368.75;5013474;28;20037;-66
2021/03/04 03:29:32;;;;;;;40.05;18.90;;;;;;;4.69;82.87;99380.88;5014777;28;20057;-66
2021/03/04 03:31:58;;;;;;;38.97;19.15;;;;;;;4.58;83.11;99383.75;5014922;28;20117;-66
2021/03/04 03:34:24;;;;;;;36.17;18.25;;;;;;;4.44;83.20;99374.38;5013844;28;20087;-66
2021/03/04 03:36:51;;;;;;;38.30;18.00;;;;;;;4.35;83.55;99370.78;5013520;28;20041;-66
2021/03/04 03:39:18;;;;;;;42.72;18.38;;;;;;;4.33;84.03;99372.75;5009168;28;20026;-66
2021/03/04 03:41:44;;;;;;;40.10;17.17;;;;;;;4.37;84.12;99365.25;5010496;28;20471;-66
2021/03/04 03:44:12;;;;;;;36.92;16.75;;;;;;;4.49;83.12;99366.75;5014385;28;20045;-66
2021/03/04 03:46:38;;;;;;;38.17;17.33;;;;;;;4.64;83.32;99368.88;5014144;28;20026;-66
2021/03/04 03:49:10;;;;;;;42.40;18.92;;;;;;;4.65;82.20;99365.22;5013905;28;20065;-66
2021/03/04 03:51:36;;;;;;;40.13;18.88;;;;;;;4.45;83.14;99356.47;5014557;28;20033;-66
2021/03/04 03:54:03;;;;;;;47.50;18.67;;;;;;;4.50;83.05;99365.72;5013789;28;20022;-66
2021/03/04 03:56:29;;;;;;;34.33;17.45;;;;;;;4.51;83.32;99355.88;5012833;28;20117;-66
2021/03/04 03:58:58;;;;;;;38.20;18.20;;;;;;;4.34;83.01;99357.53;5013149;28;20124;-66
2021/03/04 04:01:25;;;;;;;42.15;17.73;;;;;;;4.42;83.04;99348.75;5011096;28;20029;-66
2021/03/04 04:03:51;;;;;;;38.30;16.65;;;;;;;4.30;83.75;99348.94;5014294;28;20436;-66
2021/03/04 04:06:16;;;;;;;35.28;15.90;;;;;;;4.47;82.98;99341.09;5013619;28;20132;-66
2021/03/04 04:08:42;;;;;;;35.13;16.23;;;;;;;4.33;83.37;99339.78;5013535;28;20122;-67
2021/03/04 04:11:07;;;;;;;33.45;16.58;;;;;;;4.19;83.91;99335.75;5013941;28;20085;-66
2021/03/04 04:13:32;;;;;;;34.88;16.40;;;;;;;4.07;83.97;99334.28;5013872;28;20029;-66
2021/03/04 04:15:58;;;;;;;40.55;16.60;;;;;;;4.02;84.39;99340.06;5013392;28;20034;-66
2021/03/04 04:18:23;;;;;;;29.80;15.23;;;;;;;3.93;83.63;99340.97;5013231;28;20076;-66
2021/03/04 04:20:49;;;;;;;31.42;16.00;;;;;;;3.78;83.62;99329.06;5012981;28;20060;-68
2021/03/04 04:23:16;;;;;;;30.83;15.98;;;;;;;3.67;83.43;99344.31;5013217;28;20029;-68
2021/03/04 04:25:50;;;;;;;30.25;15.95;;;;;;;3.47;84.92;99322.09;5013201;28;20034;-68
2021/03/04 04:28:17;;;;;;;35.30;15.90;;;;;;;3.55;85.05;99337.44;5013119;28;20395;-68
2021/03/04 04:30:42;;;;;;;35.28;16.67;;;;;;;3.60;84.18;99332.50;5012976;28;20112;-68
2021/03/04 04:33:08;;;;;;;30.33;15.75;;;;;;;3.76;84.94;99323.00;5013240;28;20069;-68
2021/03/04 04:35:33;;;;;;;39.25;17.65;;;;;;;3.67;84.59;99327.41;5013228;28;20480;-68
2021/03/04 04:37:58;;;;;;;33.67;17.10;;;;;;;3.54;84.96;99337.56;5012026;28;20039;-68
2021/03/04 04:40:23;;;;;;;30.52;15.75;;;;;;;3.39;85.08;99329.19;5013088;28;20471;-68
2021/03/04 04:42:49;;;;;;;39.85;17.73;;;;;;;3.28;85.97;99328.34;5014112;28;20041;-68
2021/03/04 04:45:14;;;;;;;37.00;18.23;;;;;;;3.26;86.13;99327.66;5012466;28;20034;-68
2021/03/04 04:47:39;;;;;;;35.78;18.23;;;;;;;3.34;86.23;99329.59;5011353;28;20022;-68
2021/03/04 04:50:05;;;;;;;32.92;16.33;;;;;;;3.42;86.31;99320.88;5012270;28;20053;-68
2021/03/04 04:52:31;;;;;;;38.72;17.77;;;;;;;3.47;85.99;99314.09;5012116;28;20030;-68
2021/03/04 04:54:56;;;;;;;37.28;18.35;;;;;;;3.44;86.03;99317.06;5012288;28;20105;-68
2021/03/04 04:57:22;;;;;;;36.53;16.90;;;;;;;3.40;86.07;99306.78;5013059;28;20017;-68
2021/03/04 04:59:48;;;;;;;35.38;15.43;;;;;;;3.51;85.81;99303.91;5013291;28;20032;-72
2021/03/04 05:02:13;;;;;;;33.50;17.02;;;;;;;3.48;85.94;99306.91;5006133;28;20022;-76
2021/03/04 05:04:38;;;;;;;32.28;16.77;;;;;;;3.53;86.00;99301.94;4998745;28;20083;-73
2021/03/04 05:07:04;;;;;;;35.00;15.75;;;;;;;3.48;86.06;99285.50;5012628;28;20030;-76
2021/03/04 05:09:29;;;;;;;38.78;17.05;;;;;;;3.56;85.60;99288.28;5012614;28;20037;-73
2021/03/04 05:11:54;;;;;;;38.03;17.08;;;;;;;3.73;85.35;99306.25;5013320;28;20025;-75
2021/03/04 05:14:20;;;;;;;31.25;16.27;;;;;;;3.85;84.77;99296.22;5012572;28;20026;-74
2021/03/04 05:16:45;;;;;;;35.15;15.45;;;;;;;3.81;84.43;99299.31;5012486;28;20383;-74
2021/03/04 05:19:10;;;;;;;37.25;15.43;;;;;;;3.66;84.74;99283.72;5012746;28;20025;-75
2021/03/04 05:21:36;;;;;;;31.20;16.02;;;;;;;3.65;84.82;99287.41;5022198;28;20495;-73
2021/03/04 05:24:01;;;;;;;30.10;14.50;;;;;;;3.66;84.87;99285.56;5012655;28;20057;-76
2021/03/04 05:26:26;;;;;;;36.38;14.73;;;;;;;3.63;85.28;99277.84;5011748;28;20507;-76
2021/03/04 05:28:52;;;;;;;34.40;15.27;;;;;;;3.69;84.69;99288.81;5012808;28;20026;-76
2021/03/04 05:31:17;;;;;;;30.75;15.20;;;;;;;3.74;84.60;99265.09;5011692;28;20425;-75
2021/03/04 05:33:42;;;;;;;27.45;14.25;;;;;;;3.86;84.17;99281.81;5012744;28;20032;-74
2021/03/04 05:36:08;;;;;;;33.97;15.38;;;;;;;3.71;84.60;99265.41;5010329;28;20034;-74
2021/03/04 05:38:33;;;;;;;31.98;15.10;;;;;;;3.74;84.50;99274.97;5011704;28;20426;-74
2021/03/04 05:40:59;;;;;;;31.52;13.65;;;;;;;3.69;84.62;99250.50;5011894;28;20029;-72
2021/03/04 05:43:24;;;;;;;31.08;14.57;;;;;;;3.74;84.74;99274.97;5012830;28;20049;-72
2021/03/04 05:45:50;;;;;;;34.20;15.70;;;;;;;3.62;84.41;99260.97;5012925;28;20057;-76
2021/03/04 05:48:20;;;;;;;35.55;14.25;;;;;;;3.64;84.71;99274.16;5013115;28;20105;-76
2021/03/04 05:50:50;;;;;;;32.95;15.88;;;;;;;3.53;85.11;99266.34;5012573;28;20033;-76
2021/03/04 05:53:18;;;;;;;31.98;15.52;;;;;;;3.40;85.15;99256.81;5010660;28;20495;-77
2021/03/04 05:55:44;;;;;;;38.90;15.97;;;;;;;3.32;85.66;99248.66;5011584;28;20031;-75
2021/03/04 05:58:11;;;;;;;39.53;19.48;;;;;;;3.31;85.59;99257.69;5012652;28;20269;-76
2021/03/04 06:00:37;;;;;;;53.22;22.10;;;;;;;3.27;85.48;99262.50;5014033;28;20033;-76
2021/03/04 06:03:05;;;;;;;40.00;19.75;;;;;;;3.39;85.51;99262.31;5014413;28;20022;-68
2021/03/04 06:05:30;;;;;;;34.60;17.25;;;;;;;3.37;85.49;99261.63;5011146;28;20037;-70
2021/03/04 06:07:55;;;;;;;36.70;16.05;;;;;;;3.35;84.98;99248.38;5016102;28;20033;-75
2021/03/04 06:10:21;;;;;;;34.47;16.67;;;;;;;3.31;85.23;99251.50;5013935;28;20026;-71
2021/03/04 06:12:46;;;;;;;40.22;17.95;;;;;;;3.40;85.66;99267.50;5007997;28;22482;-72
2021/03/04 06:15:12;;;;;;;46.35;18.63;;;;;;;3.40;85.49;99245.25;5015340;28;20105;-75
2021/03/04 06:17:37;;;;;;;38.10;19.75;;;;;;;3.56;84.88;99256.19;5016485;28;20399;-75
2021/03/04 06:20:05;;;;;;;35.00;17.23;;;;;;;3.59;84.38;99258.59;5016511;28;20029;-74
2021/03/04 06:22:33;;;;;;;35.20;16.25;;;;;;;3.61;84.67;99261.94;5017025;28;20133;-75
2021/03/04 06:25:04;;;;;;;29.48;15.43;;;;;;;3.64;84.59;99245.59;5015152;28;20034;-76
2021/03/04 06:27:32;;;;;;;29.90;14.57;;;;;;;3.71;83.66;99246.66;5015983;28;20022;-75
2021/03/04 06:29:59;;;;;;;35.88;15.52;;;;;;;3.68;83.76;99244.28;5018042;28;20041;-71
2021/03/04 06:32:25;;;;;;;33.33;15.88;;;;;;;3.90;83.83;99255.59;5008907;28;20025;-72
2021/03/04 06:35:06;;;;;;;32.42;14.93;;;;;;;4.24;82.82;99254.94;5016019;28;20026;-72
2021/03/04 06:37:34;;;;;;;33.05;14.57;;;;;;;4.21;82.12;99249.91;5031301;28;20369;-72
2021/03/04 06:39:59;;;;;;;31.33;14.73;;;;;;;4.21;82.13;99252.59;5012663;28;20661;-69
2021/03/04 06:42:25;;;;;;;31.00;14.05;;;;;;;4.27;81.46;99242.13;5015889;28;20101;-72
2021/03/04 06:44:53;;;;;;;31.20;13.57;;;;;;;4.26;81.21;99252.97;5014336;28;20029;-74
2021/03/04 06:47:22;;;;;;;36.05;14.30;;;;;;;4.46;81.27;99251.84;5027989;28;20026;-72
2021/03/04 06:49:48;;;;;;;;;;;;;;;4.48;80.89;99249.84;5011408;28;20609;-70
2021/03/04 06:52:24;;;;;;;29.70;13.90;;;;;;;4.29;80.92;99241.94;5015364;28;19956;-72
2021/03/04 06:54:50;;;;;;;28.08;13.45;;;;;;;4.32;81.44;99255.91;5015345;28;20449;-73
2021/03/04 06:57:16;;;;;;;36.80;14.35;;;;;;;4.31;81.54;99251.53;5015925;28;20096;-68
2021/03/04 06:59:43;;;;;;;32.88;12.38;;;;;;;4.62;79.81;99269.91;5014454;28;20038;-73
2021/03/04 07:02:09;;;;;;;26.30;12.52;;;;;;;4.65;80.07;99252.66;5014341;28;20023;-73
2021/03/04 07:04:34;;;;;;;36.88;12.98;;;;;;;4.97;79.15;99260.97;5005651;28;20032;-73
2021/03/04 07:07:00;;;;;;;23.83;12.63;;;;;;;5.41;78.18;99257.41;5015417;28;20383;-70
2021/03/04 07:09:27;;;;;;;27.85;13.52;;;;;;;5.70;76.43;99241.78;5015620;28;20049;-71
2021/03/04 07:11:53;;;;;;;20.88;12.65;;;;;;;6.32;74.52;99263.00;5016106;28;20026;-72
2021/03/04 07:14:18;;;;;;;33.50;14.07;;;;;;;7.47;71.05;99246.81;5014911;28;20032;-74
2021/03/04 07:16:45;;;;;;;32.97;14.43;;;;;;;8.65;67.79;99254.03;5014832;28;20713;-74
2021/03/04 07:19:13;;;;;;;32.63;14.55;;;;;;;9.29;65.21;99248.22;5013790;28;20394;-74
2021/03/04 07:21:44;;;;;;;31.33;12.90;;;;;;;9.86;63.82;99251.13;5015108;28;20109;-76
2021/03/04 07:24:10;;;;;;;24.67;12.50;;;;;;;10.42;61.62;99228.94;5015240;28;20036;-75
2021/03/04 07:26:38;;;;;;;36.63;15.25;;;;;;;10.72;59.52;99243.19;5013631;28;20387;-75
2021/03/04 07:29:08;;;;;;;40.33;15.88;;;;;;;11.20;57.23;99231.72;5015072;28;20525;-75
2021/03/04 07:31:34;;;;;;;33.47;15.57;;;;;;;11.76;56.54;99222.69;5014914;28;20022;-76
2021/03/04 07:34:00;;;;;;;35.20;14.02;;;;;;;11.58;56.35;99205.09;5014140;28;20080;-76
2021/03/04 07:36:26;;;;;;;32.00;12.73;;;;;;;12.54;55.11;99222.38;5014787;28;20056;-77
2021/03/04 07:38:57;;;;;;;29.75;12.73;;;;;;;13.25;53.03;99205.50;5015094;28;20497;-73
2021/03/04 07:41:37;;;;;;;41.22;13.20;;;;;;;14.00;50.73;99211.41;5015052;28;20076;-72
2021/03/04 07:44:03;;;;;;;32.88;13.00;;;;;;;14.87;48.68;99206.31;5013907;28;20543;-74
2021/03/04 07:46:43;;;;;;;29.80;13.07;;;;;;;15.50;47.81;99208.06;5014674;28;20034;-74
2021/03/04 07:49:10;;;;;;;28.98;13.70;;;;;;;16.38;46.40;99218.59;5013496;28;20034;-73
2021/03/04 07:51:46;;;;;;;27.52;14.10;;;;;;;16.81;45.53;99189.41;5012825;28;20596;-78
2021/03/04 07:54:25;;;;;;;32.22;14.68;;;;;;;16.53;46.58;99187.28;5012563;28;20022;-73
2021/03/04 07:57:06;;;;;;;32.83;14.03;;;;;;;14.59;50.28;99183.06;5014088;28;20553;-73
2021/03/04 07:59:32;;;;;;;29.85;14.30;;;;;;;14.50;50.07;99197.13;5012024;28;20273;-74
2021/03/04 08:01:59;;;;;;;29.63;14.40;;;;;;;15.20;48.18;99183.41;5012731;28;20025;-74
2021/03/04 08:04:27;;;;;;;24.27;12.52;;;;;;;16.06;43.61;99187.94;5015069;28;20373;-73
2021/03/04 08:06:54;;;;;;;21.38;12.35;;;;;;;15.84;44.35;99187.56;5013664;28;20053;-73
2021/03/04 08:09:33;;;;;;;25.75;13.05;;;;;;;14.31;46.79;99182.59;5003302;28;20080;-73
2021/03/04 08:12:07;;;;;;;;;;;;;;;15.11;46.84;99180.94;5006080;28;20025;-74
2021/03/04 08:14:33;;;;;;;22.35;12.75;;;;;;;17.37;42.08;99168.91;5007722;28;19913;-76
2021/03/04 08:16:58;;;;;;;26.38;12.73;;;;;;;17.99;41.62;99170.25;5011911;28;20033;-76
2021/03/04 08:19:28;;;;;;;23.95;12.88;;;;;;;18.44;40.33;99166.72;5013642;28;20022;-74
2021/03/04 08:22:02;;;;;;;24.05;13.63;;;;;;;19.00;39.23;99170.50;5018388;28;20018;-73
2021/03/04 08:24:28;;;;;;;25.92;12.63;;;;;;;19.34;38.27;99157.56;5014027;28;20028;-74
2021/03/04 08:26:56;;;;;;;23.42;13.02;;;;;;;19.81;37.57;99161.81;5011089;28;20391;-69
2021/03/04 08:29:22;;;;;;;18.95;11.77;;;;;;;19.18;38.00;99150.22;5013889;28;20033;-75
2021/03/04 08:31:48;;;;;;;21.50;11.63;;;;;;;18.53;38.28;99144.16;5013362;28;20026;-77
2021/03/04 08:34:13;;;;;;;22.10;12.73;;;;;;;19.23;37.07;99131.91;5014088;28;20484;-77
2021/03/04 08:36:43;;;;;;;24.58;12.30;;;;;;;19.27;37.69;99148.69;5013336;28;20032;-77
2021/03/04 08:39:09;;;;;;;19.00;11.93;;;;;;;19.73;36.57;99135.63;5011402;28;20018;-75
2021/03/04 08:41:34;;;;;;;20.20;12.52;;;;;;;19.66;37.28;99130.31;5013141;28;20018;-71
2021/03/04 08:44:17;;;;;;;20.85;11.50;;;;;;;21.20;34.94;99137.38;5012897;28;20045;-74
2021/03/04 08:46:47;;;;;;;21.05;10.82;;;;;;;19.86;36.49;99123.44;5013199;28;20030;-71
2021/03/04 08:49:20;;;;;;;18.85;11.07;;;;;;;18.12;39.21;99123.41;5013789;28;20652;-75
2021/03/04 08:51:46;;;;;;;17.30;9.18;;;;;;;15.41;42.46;99128.44;5012356;28;20022;-76
2021/03/04 08:54:29;;;;;;;17.17;8.75;;;;;;;13.67;45.87;99144.34;5013912;28;20493;-77
2021/03/04 08:57:05;;;;;;;13.70;8.48;;;;;;;12.55;47.58;99145.34;5018961;28;20683;-76
2021/03/04 08:59:31;;;;;;;15.38;8.75;;;;;;;13.17;47.06;99133.19;5015083;28;20025;-75
2021/03/04 09:02:00;;;;;;;14.40;8.38;;;;;;;15.33;43.76;99134.22;5015879;28;20108;-72
2021/03/04 09:06:54;;;;;;;12.75;7.78;;;;;;;18.90;37.13;99116.31;5019558;28;20049;-71
2021/03/04 09:09:30;;;;;;;14.23;8.48;;;;;;;18.32;37.63;99118.31;5024475;28;20034;-74
2021/03/04 09:11:57;;;;;;;17.02;8.70;;;;;;;16.99;39.65;99110.06;5020431;28;20026;-73
2021/03/04 09:14:33;;;;;;;16.17;8.52;;;;;;;15.36;42.04;99124.75;5017180;28;20022;-76
2021/03/04 09:17:01;;;;;;;13.02;8.10;;;;;;;13.78;44.37;99113.78;5013546;28;20105;-74
2021/03/04 09:19:38;;;;;;;13.90;7.85;;;;;;;13.23;46.73;99124.22;5002543;28;20035;-73
2021/03/04 09:22:07;;;;;;;15.30;8.05;;;;;;;13.19;47.21;99113.97;5000866;28;20038;-76
2021/03/04 09:24:33;;;;;;;;;;;;;;;13.45;46.89;99123.97;4988007;28;20050;-74
2021/03/04 09:27:04;;;;;;;16.50;8.30;;;;;;;15.53;42.87;99102.06;5004232;28;20004;-79
2021/03/04 09:29:31;;;;;;;18.83;8.23;;;;;;;17.57;39.01;99102.84;5000925;28;20034;-75
2021/03/04 09:31:56;;;;;;;17.90;7.72;;;;;;;19.46;35.63;99075.94;4998942;28;20022;-71
2021/03/04 09:34:33;;;;;;;17.58;7.85;;;;;;;19.68;35.11;99097.97;4999723;28;20077;-73
2021/03/04 09:37:25;;;;;;;13.25;7.65;;;;;;;20.17;34.14;99094.38;4999666;28;20111;-72
2021/03/04 09:39:53;;;;;;;18.73;7.32;;;;;;;20.51;32.80;99077.66;4995873;28;20045;-76
2021/03/04 09:42:21;;;;;;;19.10;7.45;;;;;;;21.42;32.17;99082.19;4997480;28;20030;-72
2021/03/04 09:44:56;;;;;;;16.33;7.38;;;;;;;21.23;32.07;99077.13;4988506;28;20101;-74
2021/03/04 09:47:27;;;;;;;14.02;7.88;;;;;;;21.87;31.63;99070.53;4987849;28;20014;-73
2021/03/04 09:49:54;;;;;;;15.98;7.70;;;;;;;22.28;30.61;99072.59;4985136;28;20401;-72
2021/03/04 09:52:28;;;;;;;13.55;7.68;;;;;;;22.50;30.65;99056.59;4993989;28;20054;-76
2021/03/04 09:55:15;;;;;;;14.05;7.35;;;;;;;23.54;29.54;99061.69;4994686;28;20080;-77
2021/03/04 09:57:42;;;;;;;15.73;7.07;;;;;;;22.29;30.82;99054.94;4993056;28;20088;-74
2021/03/04 10:00:28;;;;;;;15.68;7.43;;;;;;;21.64;31.64;99066.34;4992167;28;20542;-72
2021/03/04 10:02:56;;;;;;;13.85;7.43;;;;;;;23.33;30.21;99060.13;4985473;28;20118;-72
2021/03/04 10:05:25;;;;;;;12.65;7.20;;;;;;;23.57;30.02;99040.97;4995690;28;20443;-75
2021/03/04 10:07:56;;;;;;;;;;;;;;;23.35;29.79;99055.97;5001959;28;20115;-77
2021/03/04 10:10:21;;;;;;;16.38;7.22;;;;;;;23.98;30.28;99046.31;4995988;28;20390;-79
2021/03/04 10:12:58;;;;;;;20.08;7.47;;;;;;;23.59;29.79;99033.25;4999175;28;20026;-77
2021/03/04 10:15:28;;;;;;;18.75;7.45;;;;;;;24.19;29.05;99039.56;4991081;28;20033;-77
2021/03/04 10:17:54;;;;;;;21.00;8.82;;;;;;;23.56;30.26;99037.38;4982310;28;20034;-75
2021/03/04 10:20:20;;;;;;;15.88;7.75;;;;;;;23.27;30.43;99037.22;4994383;28;20030;-77
2021/03/04 10:22:45;;;;;;;12.60;7.78;;;;;;;23.46;30.43;99039.38;4989702;28;20038;-78
2021/03/04 10:25:11;;;;;;;15.73;6.88;;;;;;;24.07;29.87;99028.00;4988547;28;20176;-76
2021/03/04 10:27:37;;;;;;;13.32;6.97;;;;;;;24.44;29.61;99029.41;4989523;28;20062;-78
2021/03/04 10:30:09;;;;;;;13.23;6.93;;;;;;;25.70;28.06;99019.25;4973219;28;20439;-75
2021/03/04 10:32:35;;;;;;;19.02;8.02;;;;;;;24.81;29.03;99019.69;5003825;28;20030;-78
2021/03/04 10:35:00;;;;;;;18.02;7.60;;;;;;;24.90;28.90;99009.66;5002979;28;20057;-78
2021/03/04 10:37:25;;;;;;;15.13;8.45;;;;;;;23.33;30.28;99027.81;4992443;28;20031;-76
2021/03/04 10:39:50;;;;;;;19.20;8.60;;;;;;;24.57;30.16;99012.16;4991382;28;20026;-78
2021/03/04 10:42:16;;;;;;;16.58;8.25;;;;;;;24.70;29.74;99025.31;4984811;28;20077;-77
2021/03/04 10:44:41;;;;;;;17.75;8.20;;;;;;;23.17;31.72;99004.13;4982081;28;20096;-75
2021/03/04 10:47:06;;;;;;;17.58;8.75;;;;;;;24.66;29.62;99012.38;4986452;28;20027;-73
2021/03/04 10:49:32;;;;;;;22.75;9.07;;;;;;;24.32;31.44;99009.59;4988261;28;20534;-73
2021/03/04 10:51:57;;;;;;;20.58;9.23;;;;;;;23.58;31.23;99015.03;4985166;28;20026;-71
2021/03/04 10:54:22;;;;;;;17.20;9.52;;;;;;;24.61;30.35;98984.75;4993048;28;20387;-74
2021/03/04 10:56:48;;;;;;;13.63;8.38;;;;;;;24.80;30.41;99007.81;4994343;28;20022;-77
2021/03/04 10:59:13;;;;;;;17.05;9.65;;;;;;;24.71;30.10;98999.31;4994520;28;20084;-72
2021/03/04 11:01:39;;;;;;;17.83;9.48;;;;;;;24.54;30.00;99004.44;4989459;28;20057;-76
2021/03/04 11:04:04;;;;;;;18.33;9.75;;;;;;;24.60;30.26;98995.00;4987694;28;20057;-75
2021/03/04 11:06:30;;;;;;;16.75;9.20;;;;;;;25.28;29.88;98993.19;4992804;28;20078;-70
2021/03/04 11:08:55;;;;;;;18.45;8.75;;;;;;;25.45;28.65;98995.47;4991930;28;20038;-70
2021/03/04 11:11:20;;;;;;;16.60;8.47;;;;;;;24.27;30.16;99003.00;4991759;28;20116;-70
2021/03/04 11:13:45;;;;;;;18.60;8.55;;;;;;;25.74;28.77;98992.59;4987038;28;20266;-71
2021/03/04 11:16:11;;;;;;;15.80;8.90;;;;;;;24.69;29.67;98990.47;4985719;28;20030;-72
2021/03/04 11:18:36;;;;;;;23.05;9.02;;;;;;;24.35;29.96;98989.66;4992159;28;20027;-71
2021/03/04 11:21:01;;;;;;;17.20;8.45;;;;;;;25.53;29.56;98979.00;4993138;28;20045;-74
2021/03/04 11:23:26;;;;;;;18.95;8.43;;;;;;;25.40;29.37;98968.66;4992996;28;20768;-73
2021/03/04 11:25:52;;;;;;;16.70;8.45;;;;;;;24.63;29.86;98971.47;4990075;28;20026;-68
2021/03/04 11:28:17;;;;;;;16.70;8.20;;;;;;;23.03;31.79;98975.47;4980233;28;20121;-69
2021/03/04 11:30:42;;;;;;;17.10;8.13;;;;;;;24.81;29.51;98965.19;4990573;28;20023;-68
2021/03/04 11:33:08;;;;;;;18.15;8.27;;;;;;;23.60;30.65;98963.88;4989602;28;20038;-68